Avata, Samoa

1:23 PM WSST on September 24, 2014 (GMT +1300)
Faleolo International | Change Station
CLOSE
Current Station
Airport
Location: Faleolo,
Elevation: 16 ft
Nearby Weather Stations

Elev 16 ft 13.83 °S, 172.01 °W | Updated 23 minutes ago

Drizzle
Drizzle
81 °F
Feels Like 87 °F
N
5
Wind Variable Wind from WSW

Today
High -- | Low -- °F
--% Chance of Precip.
Yesterday
High -- | Low -- °F
Precip. -- in
6:19 AM 6:27 PM
Waning Crescent, 0% visible
Pressure 29.92 in
Visibility 6.2 miles
Clouds Scattered Clouds 1800 ft
Scattered Clouds 3600 ft
Overcast 10000 ft
Heat Index 87 °F
Dew Point 77 °F
Humidity 89%
Rainfall 0.00 in
Snow Depth Not available.
UV 0 out of 12
Pollen Not available.
Air Quality Not available.
Flu Activity Not available.
METAR NSFA 240000Z 25004KT 9999 DZ SCT018 SCT036 OVC100 27/25 Q1013

More Conditions Fewer Conditions

Pressure 29.92 in
Visibility 6.2 miles
Clouds Scattered Clouds 1800 ft
Scattered Clouds 3600 ft
Overcast 10000 ft
Heat Index 87 °F
Dew Point 77 °F
Humidity 89%
Rainfall 0.00 in
Snow Depth Not available.
UV 0 out of 12
Pollen Not available.
Air Quality Not available.
Flu Activity Not available.
METAR NSFA 240000Z 25004KT 9999 DZ SCT018 SCT036 OVC100 27/25 Q1013

More Conditions Fewer Conditions

10-Day Weather Forecast

Almanac

Astronomy

Sep. 24, 2014 Rise Set
Actual Time 6:19 AM WSST 6:27 PM WSST
Civil Twilight 5:57 AM WSST 6:48 PM WSST
Nautical Twilight 5:33 AM WSST 7:13 PM WSST
Astronomical Twilight 5:08 AM WSST 7:37 PM WSST
Moon 5:57 AM WSST 6:20 PM WSST
Length of Visible Light 12h 50m
Length of Day
12h 08m
Tomorrow will be 0m 46s longer.
Waning Crescent, 0% of the Moon is Illuminated
Sep 23
Waning Crescent
Sep 24
New
Oct 1
First Quarter
Oct 8
Full
Oct 15
Last Quarter

Yesterday's Extremes

Country Highs Country Lows

Community

WunderPhotos

Upload Photos

1,755,828 photos uploaded!

WunderBlogs® & News

Nearby

Snow Depth

Not available.

Earthquake Activity

City Distance Mag. Time & Date
No recent earthquake activity has been reported nearby.
Minimum magnitude displayed is 2.5.

Coastal Water Temperatures

Place Temperature
No Stations Reporting

Nearby Weather Stations